createdAt,value
2023-01-21T00:01:16.626Z,0.76
2023-01-21T00:03:43.790Z,0.76
2023-01-21T00:06:11.608Z,0.75
2023-01-21T00:08:39.099Z,0.73
2023-01-21T00:11:16.677Z,0.71
2023-01-21T00:13:43.737Z,0.71
2023-01-21T00:16:10.549Z,0.69
2023-01-21T00:18:37.942Z,0.68
2023-01-21T00:21:05.131Z,0.67
2023-01-21T00:23:31.791Z,0.64
2023-01-21T00:26:03.491Z,0.62
2023-01-21T00:28:31.772Z,0.62
2023-01-21T00:30:59.708Z,0.60
2023-01-21T00:33:27.507Z,0.57
2023-01-21T00:36:06.126Z,0.56
2023-01-21T00:38:32.924Z,0.56
2023-01-21T00:41:09.038Z,0.55
2023-01-21T00:43:36.240Z,0.55
2023-01-21T00:46:03.188Z,0.55
2023-01-21T00:48:29.921Z,0.55
2023-01-21T00:50:59.944Z,0.56
2023-01-21T00:53:27.964Z,0.55
2023-01-21T00:55:59.362Z,0.52
2023-01-21T00:58:26.775Z,0.49
2023-01-21T01:01:01.760Z,0.47
2023-01-21T01:03:29.065Z,0.46
2023-01-21T01:06:01.337Z,0.48
2023-01-21T01:08:28.953Z,0.49
2023-01-21T01:10:55.747Z,0.51
2023-01-21T05:19:48.089Z,0.18
2023-01-21T05:22:15.026Z,0.34
2023-01-21T05:24:41.974Z,0.31
2023-01-21T05:27:09.129Z,0.31
2023-01-21T05:29:36.074Z,0.30
2023-01-21T05:32:03.246Z,0.27
2023-01-21T05:34:30.373Z,0.27
2023-01-21T05:36:57.325Z,0.28
2023-01-21T05:39:24.677Z,0.27
2023-01-21T05:41:51.545Z,0.25
2023-01-21T05:44:18.407Z,0.23
2023-01-21T05:46:45.312Z,0.22
2023-01-21T05:49:12.249Z,0.21
2023-01-21T05:51:39.206Z,0.18
2023-01-21T05:54:06.159Z,0.15
2023-01-21T05:56:33.210Z,0.15
2023-01-21T05:59:00.361Z,0.14
2023-01-21T06:01:27.307Z,0.10
2023-01-21T06:03:54.492Z,0.07
2023-01-21T06:06:21.710Z,0.05
2023-01-21T06:08:48.655Z,0.05
2023-01-21T06:11:16.008Z,0.05
2023-01-21T06:13:43.233Z,0.05
2023-01-21T06:16:10.265Z,0.04
2023-01-21T06:18:37.259Z,0.04
2023-01-21T06:21:04.338Z,0.04
2023-01-21T06:23:31.363Z,0.02
2023-01-21T06:26:01.924Z,0.02
2023-01-21T06:28:29.876Z,0.02
2023-01-21T06:30:57.008Z,0.02
2023-01-21T06:33:24.168Z,0.02
2023-01-21T06:35:51.039Z,0.03
2023-01-21T06:38:18.073Z,0.04
2023-01-21T06:40:45.124Z,0.05
2023-01-21T06:43:12.153Z,0.08
2023-01-21T06:45:39.104Z,0.11
2023-01-21T06:48:06.251Z,0.14
2023-01-21T06:50:33.092Z,0.18
2023-01-21T06:53:00.104Z,0.19
2023-01-21T06:55:27.101Z,0.20
2023-01-21T06:57:54.043Z,0.22
2023-01-21T07:00:22.049Z,0.24
2023-01-21T07:02:49.059Z,0.27
2023-01-21T07:05:16.625Z,0.28
2023-01-21T07:07:43.774Z,0.28
2023-01-21T07:10:11.708Z,0.29
2023-01-21T07:12:38.598Z,0.30
2023-01-21T07:15:06.510Z,0.28
2023-01-21T07:17:33.502Z,0.27
2023-01-21T07:20:00.452Z,0.28
2023-01-21T07:22:27.506Z,0.29
2023-01-21T07:24:54.452Z,0.29
2023-01-21T07:27:21.503Z,0.28
2023-01-21T07:29:48.453Z,0.27
2023-01-21T07:32:15.393Z,0.27
2023-01-21T07:34:45.615Z,0.28
2023-01-21T07:37:12.564Z,0.29
2023-01-21T07:39:39.713Z,0.27
2023-01-21T07:42:06.665Z,0.27
2023-01-21T07:44:34.755Z,0.27
2023-01-21T07:47:01.788Z,0.27
2023-01-21T07:49:28.761Z,0.26
2023-01-21T07:51:58.788Z,0.26
2023-01-21T07:54:25.824Z,0.27
2023-01-21T07:56:53.050Z,0.27
2023-01-21T07:59:20.210Z,0.26
2023-01-21T08:01:50.385Z,0.25
2023-01-21T08:04:17.482Z,0.25
2023-01-21T08:06:44.427Z,0.25
2023-01-21T08:09:11.476Z,0.26
2023-01-21T08:11:38.419Z,0.28
2023-01-21T08:14:05.898Z,0.28
2023-01-21T08:16:32.892Z,0.28
2023-01-21T08:18:59.878Z,0.29
2023-01-21T08:21:26.925Z,0.30
2023-01-21T08:23:54.117Z,0.29
2023-01-21T08:26:22.252Z,0.28
2023-01-21T08:28:49.968Z,0.27
2023-01-21T08:31:17.017Z,0.27
2023-01-21T08:33:44.024Z,0.28
2023-01-21T08:36:11.984Z,0.27
2023-01-21T08:38:40.218Z,0.27
2023-01-21T08:41:07.212Z,0.25
2023-01-21T08:43:34.155Z,0.27
2023-01-21T08:46:01.903Z,0.28
2023-01-21T08:48:29.578Z,0.30
2023-01-21T08:51:00.763Z,0.31
2023-01-21T08:53:27.994Z,0.34
2023-01-21T08:55:59.510Z,0.37
2023-01-21T08:58:27.014Z,0.41
2023-01-21T09:00:54.177Z,0.43
2023-01-21T09:03:21.108Z,0.44
2023-01-21T09:05:48.271Z,0.41
2023-01-21T09:08:15.129Z,0.38
2023-01-21T09:11:00.825Z,0.38
2023-01-21T09:13:35.309Z,0.35
2023-01-21T09:16:02.198Z,0.33
2023-01-21T09:18:29.202Z,0.31
2023-01-21T09:21:01.481Z,0.31
2023-01-21T09:23:32.515Z,0.32
2023-01-21T09:26:04.182Z,0.33
2023-01-21T09:28:32.553Z,0.33
2023-01-21T09:31:04.764Z,0.35
2023-01-21T09:33:32.449Z,0.36
2023-01-21T09:36:01.043Z,0.36
2023-01-21T09:38:28.535Z,0.40
2023-01-21T09:41:04.290Z,0.45
2023-01-21T09:43:37.479Z,0.51
2023-01-21T09:46:05.430Z,0.56
2023-01-21T09:48:38.235Z,0.61
2023-01-21T09:51:06.751Z,0.63
2023-01-21T09:53:42.581Z,0.65
2023-01-21T09:56:15.046Z,0.66
2023-01-21T09:59:23.162Z,0.67
2023-01-21T10:01:50.106Z,0.64
2023-01-21T10:04:46.865Z,0.61
2023-01-21T10:07:34.200Z,0.60
2023-01-21T10:10:26.624Z,0.59
2023-01-21T10:13:12.409Z,0.57
2023-01-21T10:15:42.838Z,0.56
2023-01-21T10:18:13.006Z,0.56
2023-01-21T10:20:42.978Z,0.56
2023-01-21T10:23:28.264Z,0.56
2023-01-21T10:25:55.510Z,0.55
2023-01-21T10:28:24.674Z,0.56
2023-01-21T10:30:54.343Z,0.56
2023-01-21T10:33:25.887Z,0.62
2023-01-21T10:36:05.005Z,0.69
2023-01-21T10:39:09.194Z,0.78
2023-01-21T10:41:47.857Z,0.86
2023-01-21T10:44:54.219Z,0.87
2023-01-21T10:47:45.377Z,0.83
2023-01-21T10:50:34.868Z,0.83
2023-01-21T10:53:17.441Z,0.84
2023-01-21T10:55:59.746Z,0.83
2023-01-21T10:58:46.136Z,0.84
2023-01-21T11:01:28.564Z,0.85
2023-01-21T11:04:00.109Z,0.86
2023-01-21T11:06:27.249Z,0.86
2023-01-21T11:08:59.882Z,0.86
2023-01-21T11:11:32.600Z,0.86
2023-01-21T11:13:59.613Z,0.88
2023-01-21T11:16:43.931Z,0.88
2023-01-21T11:19:24.898Z,0.86
2023-01-21T11:22:14.269Z,0.80
2023-01-21T11:24:48.904Z,0.76
2023-01-21T11:27:25.494Z,0.74
2023-01-21T11:29:52.617Z,0.71
2023-01-21T11:32:21.542Z,0.74
2023-01-21T11:34:52.675Z,0.77
2023-01-21T11:37:27.247Z,0.81
2023-01-21T13:09:22.347Z,0.08
2023-01-21T13:11:58.358Z,0.08
2023-01-21T13:14:35.081Z,0.07
2023-01-21T13:17:11.652Z,0.06
2023-01-21T13:19:38.607Z,0.07
2023-01-21T13:22:31.983Z,0.05
2023-01-21T13:25:17.139Z,0.04
2023-01-21T13:28:21.676Z,0.05
2023-01-21T13:30:57.785Z,0.07
2023-01-21T13:34:02.370Z,0.08
2023-01-21T13:37:03.284Z,0.08
2023-01-21T13:39:49.194Z,0.05
2023-01-21T13:42:42.073Z,0.02
2023-01-21T13:45:26.881Z,0.02
2023-01-21T13:48:06.267Z,0.02
2023-01-21T13:51:00.320Z,0.02
2023-01-21T13:53:39.477Z,-0.02
2023-01-21T13:56:12.457Z,-0.02
2023-01-21T13:58:48.214Z,0.00
2023-01-21T14:01:25.168Z,0.02
2023-01-21T14:03:55.320Z,0.04
2023-01-21T14:06:42.671Z,0.06
2023-01-21T14:09:15.739Z,0.05
2023-01-21T14:11:49.164Z,0.06
2023-01-21T14:14:31.773Z,0.08
2023-01-21T14:17:14.014Z,0.09
2023-01-21T14:19:47.253Z,0.09
2023-01-21T14:22:35.952Z,0.09
2023-01-21T14:25:18.877Z,0.09
2023-01-21T14:28:35.287Z,0.09
2023-01-21T14:31:13.125Z,0.09
2023-01-21T14:34:01.954Z,0.07
2023-01-21T14:37:10.928Z,0.07
2023-01-21T14:39:47.809Z,0.08
2023-01-21T14:42:17.620Z,0.11
2023-01-21T14:44:53.884Z,0.11
2023-01-21T14:47:24.751Z,0.11
2023-01-21T14:49:55.394Z,0.10
2023-01-21T14:52:33.265Z,0.10
2023-01-21T14:55:00.421Z,0.11
2023-01-21T14:57:35.962Z,0.12
2023-01-21T15:00:14.145Z,0.13
2023-01-21T15:02:43.850Z,0.15
2023-01-21T15:05:10.834Z,0.17
2023-01-21T15:07:44.153Z,0.19
2023-01-21T15:10:15.890Z,0.22
2023-01-21T15:12:47.239Z,0.23
2023-01-21T15:15:36.523Z,0.26
2023-01-21T15:18:09.622Z,0.28
2023-01-21T15:20:39.486Z,0.29
2023-01-21T15:23:22.141Z,0.30
2023-01-21T15:26:05.373Z,0.33
2023-01-21T15:28:59.241Z,0.35
2023-01-21T15:31:26.340Z,0.38
2023-01-21T15:34:02.250Z,0.38
2023-01-21T15:36:34.866Z,0.38
2023-01-21T15:39:03.631Z,0.39
2023-01-21T15:41:49.816Z,0.39
2023-01-21T15:44:23.119Z,0.38
2023-01-21T15:47:02.448Z,0.38
2023-01-21T15:49:39.435Z,0.38
2023-01-21T15:52:18.971Z,0.38
2023-01-21T15:55:01.179Z,0.38
2023-01-21T15:57:53.745Z,0.39
2023-01-21T16:00:45.146Z,0.39
2023-01-21T16:03:32.573Z,0.37
2023-01-21T16:06:04.642Z,0.37
2023-01-21T16:08:58.215Z,0.37
2023-01-21T16:11:47.552Z,0.39
2023-01-21T16:14:52.825Z,0.42
2023-01-21T16:17:28.180Z,0.44
2023-01-21T16:19:55.536Z,0.43
2023-01-21T16:22:28.858Z,0.41
2023-01-21T16:24:59.574Z,0.41
2023-01-21T16:27:28.244Z,0.42
2023-01-21T16:30:00.191Z,0.41
2023-01-21T16:32:27.449Z,0.41
2023-01-21T16:34:54.624Z,0.42
2023-01-21T16:37:23.926Z,0.42
2023-01-21T16:39:54.249Z,0.43
2023-01-21T16:42:22.722Z,0.44
2023-01-21T16:44:49.624Z,0.46
2023-01-21T16:47:24.888Z,0.48
2023-01-21T16:49:52.388Z,0.49
2023-01-21T16:52:20.330Z,0.49
2023-01-21T16:54:48.088Z,0.49
2023-01-21T16:57:19.669Z,0.50
2023-01-21T16:59:48.774Z,0.50
2023-01-21T17:02:31.802Z,0.52
2023-01-21T17:05:04.742Z,0.53
2023-01-21T17:07:34.396Z,0.55
2023-01-21T17:10:05.664Z,0.56
2023-01-21T17:12:35.264Z,0.57
2023-01-21T17:15:37.706Z,0.57
2023-01-21T17:18:32.120Z,0.56
2023-01-21T17:21:09.115Z,0.56
2023-01-21T17:23:51.289Z,0.55
2023-01-21T17:26:20.668Z,0.54
2023-01-21T17:28:59.906Z,0.54
2023-01-21T17:31:28.309Z,0.55
2023-01-21T17:34:11.071Z,0.57
2023-01-21T17:36:38.920Z,0.57
2023-01-21T17:39:06.786Z,0.59
2023-01-21T17:41:37.728Z,0.59
2023-01-21T17:44:06.931Z,0.58
2023-01-21T17:46:34.433Z,0.57
2023-01-21T17:49:14.328Z,0.57
2023-01-21T17:51:42.623Z,0.59
2023-01-21T17:54:32.385Z,0.59
2023-01-21T17:56:59.891Z,0.60
2023-01-21T17:59:41.066Z,0.60
2023-01-21T18:02:12.285Z,0.60
2023-01-21T18:04:39.886Z,0.61
2023-01-21T18:07:19.180Z,0.62
2023-01-21T18:09:46.117Z,0.63
2023-01-21T18:12:13.107Z,0.63
2023-01-21T18:14:41.060Z,0.63
2023-01-21T18:17:15.573Z,0.65
2023-01-21T18:19:42.627Z,0.65
2023-01-21T18:22:15.204Z,0.65
2023-01-21T18:24:42.143Z,0.66
2023-01-21T18:27:09.093Z,0.67
2023-01-21T18:29:36.034Z,0.68
2023-01-21T18:32:03.028Z,0.70
2023-01-21T18:34:30.129Z,0.72
2023-01-21T18:36:58.017Z,0.72
2023-01-21T18:39:25.067Z,0.73
2023-01-21T18:41:52.099Z,0.73
2023-01-21T18:44:22.122Z,0.74
2023-01-21T18:46:49.455Z,0.76
2023-01-21T18:49:20.411Z,0.78
2023-01-21T18:51:47.587Z,0.80
2023-01-21T18:54:15.169Z,0.81
2023-01-21T18:56:42.781Z,0.82
2023-01-21T18:59:17.532Z,0.84
2023-01-21T19:01:44.812Z,0.88
2023-01-21T19:04:13.405Z,0.91
2023-01-21T19:06:40.412Z,0.94
2023-01-21T19:09:25.794Z,0.96
2023-01-21T19:11:52.734Z,0.98
2023-01-21T19:14:19.791Z,1.00
2023-01-21T19:16:46.860Z,1.02
2023-01-21T19:19:15.937Z,1.05
2023-01-21T19:21:43.116Z,1.06
2023-01-21T19:24:11.993Z,1.06
2023-01-21T19:26:39.448Z,1.07
2023-01-21T19:29:07.931Z,1.08
2023-01-21T19:31:35.065Z,1.08
2023-01-21T19:34:02.234Z,1.09
2023-01-21T19:36:29.387Z,1.07
2023-01-21T19:38:58.373Z,1.08
2023-01-21T19:41:25.624Z,1.09
2023-01-21T19:43:52.572Z,1.10
2023-01-21T19:46:19.843Z,1.09
2023-01-21T19:48:50.511Z,1.10
2023-01-21T19:51:17.668Z,1.12
2023-01-21T19:53:46.565Z,1.13
2023-01-21T19:56:15.709Z,1.14
2023-01-21T19:58:42.749Z,1.15
2023-01-21T20:01:09.820Z,1.16
2023-01-21T20:03:36.856Z,1.18
2023-01-21T20:06:04.175Z,1.21
2023-01-21T20:08:31.464Z,1.23
2023-01-21T20:10:58.517Z,1.24
2023-01-21T20:13:26.274Z,1.25
2023-01-21T20:15:53.224Z,1.24
2023-01-21T20:18:26.928Z,1.20
2023-01-21T20:20:54.284Z,1.17
2023-01-21T20:23:22.213Z,1.16
2023-01-21T20:25:51.352Z,1.17
2023-01-21T20:28:19.491Z,1.21
2023-01-21T20:30:47.626Z,1.25
2023-01-21T20:33:16.193Z,1.29
2023-01-21T20:35:44.876Z,1.32
2023-01-21T20:38:15.993Z,1.33
2023-01-21T20:40:42.978Z,1.34
2023-01-21T20:43:10.271Z,1.38
2023-01-21T20:45:45.295Z,1.42
2023-01-21T20:48:25.429Z,1.45
2023-01-21T20:50:52.458Z,1.44
2023-01-21T20:53:19.615Z,1.40
2023-01-21T20:55:51.888Z,1.39
2023-01-21T20:58:26.208Z,1.40
2023-01-21T21:00:53.273Z,1.41
2023-01-21T21:03:20.307Z,1.43
2023-01-21T21:05:47.944Z,1.45
2023-01-21T21:08:16.794Z,1.47
2023-01-21T21:10:43.815Z,1.47
2023-01-21T21:13:11.924Z,1.49
2023-01-21T21:15:39.136Z,1.48
2023-01-21T21:18:06.710Z,1.47
2023-01-21T21:20:35.981Z,1.46
2023-01-21T21:23:03.050Z,1.47
2023-01-21T21:25:32.593Z,1.47
2023-01-21T21:27:59.615Z,1.46
2023-01-21T21:30:30.036Z,1.44
2023-01-21T21:32:58.402Z,1.45
2023-01-21T21:35:29.190Z,1.45
2023-01-21T21:37:58.356Z,1.43
2023-01-21T21:40:26.387Z,1.43
2023-01-21T21:43:12.248Z,1.41
2023-01-21T21:45:41.136Z,1.40
2023-01-21T21:48:36.322Z,1.39
2023-01-21T21:51:06.071Z,1.37
2023-01-21T21:53:33.182Z,1.40
2023-01-21T21:56:05.519Z,1.42
2023-01-21T21:58:32.601Z,1.44
2023-01-21T22:01:09.416Z,1.44
2023-01-21T22:03:36.835Z,1.44
2023-01-21T22:06:04.277Z,1.44
2023-01-21T22:08:32.725Z,1.45
2023-01-21T22:11:00.787Z,1.45
2023-01-21T22:13:28.915Z,1.47
2023-01-21T22:15:56.705Z,1.48
2023-01-21T22:18:24.744Z,1.49
2023-01-21T22:20:56.525Z,1.51
2023-01-21T22:23:23.472Z,1.51
2023-01-21T22:25:50.518Z,1.51
2023-01-21T22:28:17.672Z,1.51
2023-01-21T22:30:44.761Z,1.53
2023-01-21T22:33:11.769Z,1.53
2023-01-21T22:35:39.833Z,1.51
2023-01-21T22:38:06.998Z,1.49
